sensor_id;sensor_type;location;lat;lon;timestamp;temperature;humidity
20839;DHT22;10580;51.092;6.828;2023-04-25T00:17:02;5.70;1.00
20839;DHT22;10580;51.092;6.828;2023-04-25T00:29:16;5.60;1.00
20839;DHT22;10580;51.092;6.828;2023-04-25T00:31:41;5.70;1.00
20839;DHT22;10580;51.092;6.828;2023-04-25T00:34:07;5.50;1.00
20839;DHT22;10580;51.092;6.828;2023-04-25T00:36:33;5.70;1.00
20839;DHT22;10580;51.092;6.828;2023-04-25T00:38:59;5.60;1.00
20839;DHT22;10580;51.092;6.828;2023-04-25T00:41:26;5.60;1.00
20839;DHT22;10580;51.092;6.828;2023-04-25T00:48:45;5.70;1.00
20839;DHT22;10580;51.092;6.828;2023-04-25T00:51:16;5.80;98.50
20839;DHT22;10580;51.092;6.828;2023-04-25T00:53:42;5.80;18.50
20839;DHT22;10580;51.092;6.828;2023-04-25T00:56:07;5.80;99.90
20839;DHT22;10580;51.092;6.828;2023-04-25T01:03:26;5.90;1.00
20839;DHT22;10580;51.092;6.828;2023-04-25T01:05:54;5.90;99.90
20839;DHT22;10580;51.092;6.828;2023-04-25T01:08:23;6.10;1.00
20839;DHT22;10580;51.092;6.828;2023-04-25T01:32:47;6.20;99.90
20839;DHT22;10580;51.092;6.828;2023-04-25T01:35:13;6.40;1.00
20839;DHT22;10580;51.092;6.828;2023-04-25T01:37:40;6.40;99.90
20839;DHT22;10580;51.092;6.828;2023-04-25T01:45:00;6.20;1.00
20839;DHT22;10580;51.092;6.828;2023-04-25T01:47:26;6.40;99.90
20839;DHT22;10580;51.092;6.828;2023-04-25T01:49:52;6.50;3.50
20839;DHT22;10580;51.092;6.828;2023-04-25T02:26:28;6.50;99.90
20839;DHT22;10580;51.092;6.828;2023-04-25T02:28:53;6.50;99.90
20839;DHT22;10580;51.092;6.828;2023-04-25T02:31:19;6.60;99.90
20839;DHT22;10580;51.092;6.828;2023-04-25T02:33:44;6.40;99.90
20839;DHT22;10580;51.092;6.828;2023-04-25T02:36:10;6.60;99.90
20839;DHT22;10580;51.092;6.828;2023-04-25T02:55:37;6.70;1.00
20839;DHT22;10580;51.092;6.828;2023-04-25T02:58:04;6.70;1.00
20839;DHT22;10580;51.092;6.828;2023-04-25T03:19:57;6.70;1.00
20839;DHT22;10580;51.092;6.828;2023-04-25T03:27:16;6.70;1.00
20839;DHT22;10580;51.092;6.828;2023-04-25T03:29:42;6.70;1.00
20839;DHT22;10580;51.092;6.828;2023-04-25T03:39:26;6.70;1.00
20839;DHT22;10580;51.092;6.828;2023-04-25T03:44:17;6.60;1.00
20839;DHT22;10580;51.092;6.828;2023-04-25T03:46:43;6.80;1.00
20839;DHT22;10580;51.092;6.828;2023-04-25T03:49:08;6.80;1.00
20839;DHT22;10580;51.092;6.828;2023-04-25T03:51:34;6.70;1.00
20839;DHT22;10580;51.092;6.828;2023-04-25T03:54:00;6.80;5.80
20839;DHT22;10580;51.092;6.828;2023-04-25T04:06:12;6.60;99.90
20839;DHT22;10580;51.092;6.828;2023-04-25T04:08:38;6.70;1.00
20839;DHT22;10580;51.092;6.828;2023-04-25T04:13:30;6.60;1.00
20839;DHT22;10580;51.092;6.828;2023-04-25T04:15:55;6.70;1.00
20839;DHT22;10580;51.092;6.828;2023-04-25T04:18:21;6.70;1.00
20839;DHT22;10580;51.092;6.828;2023-04-25T04:20:47;6.70;99.90
20839;DHT22;10580;51.092;6.828;2023-04-25T04:23:13;6.70;99.90
20839;DHT22;10580;51.092;6.828;2023-04-25T04:25:39;6.80;99.90
20839;DHT22;10580;51.092;6.828;2023-04-25T04:28:05;6.70;99.90
20839;DHT22;10580;51.092;6.828;2023-04-25T04:30:31;6.70;99.90
20839;DHT22;10580;51.092;6.828;2023-04-25T04:32:59;6.70;99.90
20839;DHT22;10580;51.092;6.828;2023-04-25T04:37:52;6.70;1.00
20839;DHT22;10580;51.092;6.828;2023-04-25T04:40:18;6.70;99.90
20839;DHT22;10580;51.092;6.828;2023-04-25T04:42:44;6.70;1.00
20839;DHT22;10580;51.092;6.828;2023-04-25T04:45:13;6.70;15.20
20839;DHT22;10580;51.092;6.828;2023-04-25T04:47:39;6.70;94.90
20839;DHT22;10580;51.092;6.828;2023-04-25T04:50:09;6.70;1.00
20839;DHT22;10580;51.092;6.828;2023-04-25T04:52:36;6.80;1.00
20839;DHT22;10580;51.092;6.828;2023-04-25T04:55:05;6.80;1.00
20839;DHT22;10580;51.092;6.828;2023-04-25T04:57:31;6.80;1.00
20839;DHT22;10580;51.092;6.828;2023-04-25T04:59:58;6.80;1.00
20839;DHT22;10580;51.092;6.828;2023-04-25T05:02:24;6.90;1.00
20839;DHT22;10580;51.092;6.828;2023-04-25T05:12:08;8.00;99.90
20839;DHT22;10580;51.092;6.828;2023-04-25T05:14:34;8.30;99.90
20839;DHT22;10580;51.092;6.828;2023-04-25T05:17:00;8.50;99.90
20839;DHT22;10580;51.092;6.828;2023-04-25T05:19:25;8.80;99.90
20839;DHT22;10580;51.092;6.828;2023-04-25T05:24:18;9.50;99.90
20839;DHT22;10580;51.092;6.828;2023-04-25T05:26:43;10.00;4.10
20839;DHT22;10580;51.092;6.828;2023-04-25T05:29:09;10.30;1.00
20839;DHT22;10580;51.092;6.828;2023-04-25T05:31:36;10.30;1.00
20839;DHT22;10580;51.092;6.828;2023-04-25T05:34:02;11.00;1.00
20839;DHT22;10580;51.092;6.828;2023-04-25T05:36:27;11.00;1.00
20839;DHT22;10580;51.092;6.828;2023-04-25T05:38:53;10.80;1.00
20839;DHT22;10580;51.092;6.828;2023-04-25T05:41:18;10.80;1.00
20839;DHT22;10580;51.092;6.828;2023-04-25T05:43:44;11.10;1.00
20839;DHT22;10580;51.092;6.828;2023-04-25T05:46:12;11.80;1.00
20839;DHT22;10580;51.092;6.828;2023-04-25T05:48:39;12.30;1.00
20839;DHT22;10580;51.092;6.828;2023-04-25T05:53:30;12.60;1.00
20839;DHT22;10580;51.092;6.828;2023-04-25T05:55:56;12.80;1.00
20839;DHT22;10580;51.092;6.828;2023-04-25T05:58:21;12.80;1.00
20839;DHT22;10580;51.092;6.828;2023-04-25T06:03:13;14.20;99.90
20839;DHT22;10580;51.092;6.828;2023-04-25T06:05:41;14.80;1.00
20839;DHT22;10580;51.092;6.828;2023-04-25T06:10:33;14.90;99.90
20839;DHT22;10580;51.092;6.828;2023-04-25T06:12:58;14.20;99.90
20839;DHT22;10580;51.092;6.828;2023-04-25T06:15:24;12.80;99.90
20839;DHT22;10580;51.092;6.828;2023-04-25T06:17:50;11.50;99.90
20839;DHT22;10580;51.092;6.828;2023-04-25T06:20:16;10.60;99.90
20839;DHT22;10580;51.092;6.828;2023-04-25T06:22:41;9.90;99.90
20839;DHT22;10580;51.092;6.828;2023-04-25T06:25:07;9.50;1.00
20839;DHT22;10580;51.092;6.828;2023-04-25T06:27:33;9.20;1.00
20839;DHT22;10580;51.092;6.828;2023-04-25T06:29:59;9.20;99.90
20839;DHT22;10580;51.092;6.828;2023-04-25T06:32:25;9.20;99.90
20839;DHT22;10580;51.092;6.828;2023-04-25T06:34:52;9.00;99.90
20839;DHT22;10580;51.092;6.828;2023-04-25T06:37:18;9.00;99.90
20839;DHT22;10580;51.092;6.828;2023-04-25T06:39:44;8.90;99.90
20839;DHT22;10580;51.092;6.828;2023-04-25T06:42:09;8.70;99.90
20839;DHT22;10580;51.092;6.828;2023-04-25T06:44:35;8.70;99.90
20839;DHT22;10580;51.092;6.828;2023-04-25T06:47:01;8.60;99.90
20839;DHT22;10580;51.092;6.828;2023-04-25T06:49:26;8.50;99.90
20839;DHT22;10580;51.092;6.828;2023-04-25T06:51:52;8.50;1.00
20839;DHT22;10580;51.092;6.828;2023-04-25T07:04:01;7.90;1.00
20839;DHT22;10580;51.092;6.828;2023-04-25T07:06:27;8.80;1.00
20839;DHT22;10580;51.092;6.828;2023-04-25T07:13:46;8.90;1.00
20839;DHT22;10580;51.092;6.828;2023-04-25T08:00:03;9.30;1.00
20839;DHT22;10580;51.092;6.828;2023-04-25T08:02:28;9.20;1.00
20839;DHT22;10580;51.092;6.828;2023-04-25T08:21:57;8.80;1.00
20839;DHT22;10580;51.092;6.828;2023-04-25T08:24:23;9.00;1.00
20839;DHT22;10580;51.092;6.828;2023-04-25T08:32:33;9.20;1.00
20839;DHT22;10580;51.092;6.828;2023-04-25T08:34:59;9.20;1.00
20839;DHT22;10580;51.092;6.828;2023-04-25T08:37:24;9.10;1.00
20839;DHT22;10580;51.092;6.828;2023-04-25T08:39:50;9.10;1.00
20839;DHT22;10580;51.092;6.828;2023-04-25T10:05:05;12.50;99.90
20839;DHT22;10580;51.092;6.828;2023-04-25T10:10:01;12.70;48.90
20839;DHT22;10580;51.092;6.828;2023-04-25T10:32:38;10.50;99.90
20839;DHT22;10580;51.092;6.828;2023-04-25T10:37:36;10.70;99.90
20839;DHT22;10580;51.092;6.828;2023-04-25T10:40:09;10.80;99.90
20839;DHT22;10580;51.092;6.828;2023-04-25T11:49:41;14.50;1.00
20839;DHT22;10580;51.092;6.828;2023-04-25T11:52:06;14.80;1.00
20839;DHT22;10580;51.092;6.828;2023-04-25T11:54:35;15.00;1.00
20839;DHT22;10580;51.092;6.828;2023-04-25T11:57:01;14.60;1.00
20839;DHT22;10580;51.092;6.828;2023-04-25T11:59:27;14.20;1.00
20839;DHT22;10580;51.092;6.828;2023-04-25T12:01:53;13.70;15.60
20839;DHT22;10580;51.092;6.828;2023-04-25T12:48:50;10.90;99.90
20839;DHT22;10580;51.092;6.828;2023-04-25T12:51:16;11.00;31.10
20839;DHT22;10580;51.092;6.828;2023-04-25T17:20:20;11.00;1.00
20839;DHT22;10580;51.092;6.828;2023-04-25T17:37:24;10.60;1.00
20839;DHT22;10580;51.092;6.828;2023-04-25T17:44:43;10.50;1.00
20839;DHT22;10580;51.092;6.828;2023-04-25T17:47:09;10.50;1.00
20839;DHT22;10580;51.092;6.828;2023-04-25T17:49:36;10.50;1.00
20839;DHT22;10580;51.092;6.828;2023-04-25T17:52:02;10.50;1.00
20839;DHT22;10580;51.092;6.828;2023-04-25T17:54:27;10.40;1.00
20839;DHT22;10580;51.092;6.828;2023-04-25T17:56:53;10.40;1.00
20839;DHT22;10580;51.092;6.828;2023-04-25T17:59:20;10.20;1.00
20839;DHT22;10580;51.092;6.828;2023-04-25T18:01:46;10.30;1.00
20839;DHT22;10580;51.092;6.828;2023-04-25T18:04:12;10.20;1.00
20839;DHT22;10580;51.092;6.828;2023-04-25T18:06:38;10.10;1.00
20839;DHT22;10580;51.092;6.828;2023-04-25T18:09:04;10.10;1.00
20839;DHT22;10580;51.092;6.828;2023-04-25T18:11:41;10.10;1.00
20839;DHT22;10580;51.092;6.828;2023-04-25T18:14:07;10.00;1.00
20839;DHT22;10580;51.092;6.828;2023-04-25T18:16:39;9.90;1.00
20839;DHT22;10580;51.092;6.828;2023-04-25T18:19:06;9.90;1.00
20839;DHT22;10580;51.092;6.828;2023-04-25T18:21:37;9.80;1.00
20839;DHT22;10580;51.092;6.828;2023-04-25T18:24:03;9.80;1.00
20839;DHT22;10580;51.092;6.828;2023-04-25T18:26:29;9.60;1.00
20839;DHT22;10580;51.092;6.828;2023-04-25T18:28:54;9.50;1.00
20839;DHT22;10580;51.092;6.828;2023-04-25T18:31:20;9.50;1.00
20839;DHT22;10580;51.092;6.828;2023-04-25T18:33:49;9.40;1.00
20839;DHT22;10580;51.092;6.828;2023-04-25T18:38:40;9.10;1.00
20839;DHT22;10580;51.092;6.828;2023-04-25T18:41:06;8.60;1.00
20839;DHT22;10580;51.092;6.828;2023-04-25T18:43:32;9.00;1.00
20839;DHT22;10580;51.092;6.828;2023-04-25T18:45:57;9.00;1.00
20839;DHT22;10580;51.092;6.828;2023-04-25T18:48:23;8.90;1.00
20839;DHT22;10580;51.092;6.828;2023-04-25T18:50:49;8.80;1.00
20839;DHT22;10580;51.092;6.828;2023-04-25T19:32:26;7.40;1.00
20839;DHT22;10580;51.092;6.828;2023-04-25T19:37:17;8.10;99.90
20839;DHT22;10580;51.092;6.828;2023-04-25T19:39:43;8.00;99.90
20839;DHT22;10580;51.092;6.828;2023-04-25T19:42:09;7.90;1.00
20839;DHT22;10580;51.092;6.828;2023-04-25T19:44:35;7.80;99.90
20839;DHT22;10580;51.092;6.828;2023-04-25T19:47:01;7.80;1.00
20839;DHT22;10580;51.092;6.828;2023-04-25T19:49:26;7.80;1.00
20839;DHT22;10580;51.092;6.828;2023-04-25T19:51:52;7.70;1.00
20839;DHT22;10580;51.092;6.828;2023-04-25T19:54:18;7.70;1.00
20839;DHT22;10580;51.092;6.828;2023-04-25T19:56:44;7.60;1.00
20839;DHT22;10580;51.092;6.828;2023-04-25T19:59:10;7.60;1.00
20839;DHT22;10580;51.092;6.828;2023-04-25T20:01:35;7.60;1.00
20839;DHT22;10580;51.092;6.828;2023-04-25T20:04:01;7.60;1.00
20839;DHT22;10580;51.092;6.828;2023-04-25T20:06:27;7.50;9.70
20839;DHT22;10580;51.092;6.828;2023-04-25T20:08:53;7.40;1.00
20839;DHT22;10580;51.092;6.828;2023-04-25T20:11:22;7.40;1.00
20839;DHT22;10580;51.092;6.828;2023-04-25T20:13:48;7.40;1.00
20839;DHT22;10580;51.092;6.828;2023-04-25T20:16:13;7.40;1.00
20839;DHT22;10580;51.092;6.828;2023-04-25T20:18:45;7.30;1.00
20839;DHT22;10580;51.092;6.828;2023-04-25T20:21:16;7.30;99.90
20839;DHT22;10580;51.092;6.828;2023-04-25T20:23:42;7.30;1.00
20839;DHT22;10580;51.092;6.828;2023-04-25T20:26:08;7.30;1.00
20839;DHT22;10580;51.092;6.828;2023-04-25T20:28:34;7.20;1.00
20839;DHT22;10580;51.092;6.828;2023-04-25T20:31:00;7.20;1.00
20839;DHT22;10580;51.092;6.828;2023-04-25T20:33:26;7.10;1.00
20839;DHT22;10580;51.092;6.828;2023-04-25T20:35:52;7.10;1.00
20839;DHT22;10580;51.092;6.828;2023-04-25T20:38:18;7.10;1.00
20839;DHT22;10580;51.092;6.828;2023-04-25T20:40:44;7.10;8.10
20839;DHT22;10580;51.092;6.828;2023-04-25T20:43:09;7.00;1.00
20839;DHT22;10580;51.092;6.828;2023-04-25T20:45:37;7.00;99.90
20839;DHT22;10580;51.092;6.828;2023-04-25T20:48:03;6.90;1.00
20839;DHT22;10580;51.092;6.828;2023-04-25T20:50:29;6.90;1.00
20839;DHT22;10580;51.092;6.828;2023-04-25T20:52:56;6.80;1.00
20839;DHT22;10580;51.092;6.828;2023-04-25T20:55:22;6.70;1.00
20839;DHT22;10580;51.092;6.828;2023-04-25T20:57:57;6.70;1.00
20839;DHT22;10580;51.092;6.828;2023-04-25T21:00:23;6.70;1.00
20839;DHT22;10580;51.092;6.828;2023-04-25T21:02:54;6.60;1.00
20839;DHT22;10580;51.092;6.828;2023-04-25T21:05:21;6.60;1.00
20839;DHT22;10580;51.092;6.828;2023-04-25T21:07:47;6.50;1.00
20839;DHT22;10580;51.092;6.828;2023-04-25T21:10:13;6.50;1.00
20839;DHT22;10580;51.092;6.828;2023-04-25T21:12:40;6.50;1.00
20839;DHT22;10580;51.092;6.828;2023-04-25T21:15:08;6.50;1.00
20839;DHT22;10580;51.092;6.828;2023-04-25T21:17:36;6.40;1.00
20839;DHT22;10580;51.092;6.828;2023-04-25T21:20:01;6.40;1.00
20839;DHT22;10580;51.092;6.828;2023-04-25T21:22:34;6.40;1.00
20839;DHT22;10580;51.092;6.828;2023-04-25T21:25:00;6.40;1.00
20839;DHT22;10580;51.092;6.828;2023-04-25T21:27:33;6.40;1.00
20839;DHT22;10580;51.092;6.828;2023-04-25T21:29:58;6.30;1.00
20839;DHT22;10580;51.092;6.828;2023-04-25T21:32:24;6.30;1.00
20839;DHT22;10580;51.092;6.828;2023-04-25T21:34:51;6.20;1.00
20839;DHT22;10580;51.092;6.828;2023-04-25T21:37:16;6.20;1.00
20839;DHT22;10580;51.092;6.828;2023-04-25T21:39:42;6.10;1.00
20839;DHT22;10580;51.092;6.828;2023-04-25T21:42:07;6.10;1.00
20839;DHT22;10580;51.092;6.828;2023-04-25T21:44:35;6.10;1.00
20839;DHT22;10580;51.092;6.828;2023-04-25T21:47:01;6.10;1.00
20839;DHT22;10580;51.092;6.828;2023-04-25T21:49:26;6.00;1.00
20839;DHT22;10580;51.092;6.828;2023-04-25T21:51:55;6.00;1.00
20839;DHT22;10580;51.092;6.828;2023-04-25T21:54:20;6.00;1.00
20839;DHT22;10580;51.092;6.828;2023-04-25T21:56:46;5.90;1.00
20839;DHT22;10580;51.092;6.828;2023-04-25T21:59:12;5.90;1.00
20839;DHT22;10580;51.092;6.828;2023-04-25T22:01:38;5.90;1.00
20839;DHT22;10580;51.092;6.828;2023-04-25T22:04:03;5.90;1.00
20839;DHT22;10580;51.092;6.828;2023-04-25T22:06:29;5.90;1.00
20839;DHT22;10580;51.092;6.828;2023-04-25T22:08:55;5.90;99.90
20839;DHT22;10580;51.092;6.828;2023-04-25T22:11:21;5.80;99.90
20839;DHT22;10580;51.092;6.828;2023-04-25T22:13:51;5.80;20.80
20839;DHT22;10580;51.092;6.828;2023-04-25T22:16:16;5.70;1.00
20839;DHT22;10580;51.092;6.828;2023-04-25T22:18:42;5.60;1.00
20839;DHT22;10580;51.092;6.828;2023-04-25T22:21:11;5.60;1.00
20839;DHT22;10580;51.092;6.828;2023-04-25T22:23:37;5.50;1.00
20839;DHT22;10580;51.092;6.828;2023-04-25T22:26:03;5.50;1.00
20839;DHT22;10580;51.092;6.828;2023-04-25T22:28:29;5.50;1.00
20839;DHT22;10580;51.092;6.828;2023-04-25T22:30:55;5.40;1.00
20839;DHT22;10580;51.092;6.828;2023-04-25T22:33:21;5.50;1.00
20839;DHT22;10580;51.092;6.828;2023-04-25T22:35:47;5.40;1.00
20839;DHT22;10580;51.092;6.828;2023-04-25T22:38:12;5.30;1.00
20839;DHT22;10580;51.092;6.828;2023-04-25T22:40:38;5.30;1.00
20839;DHT22;10580;51.092;6.828;2023-04-25T22:43:04;5.20;1.00
20839;DHT22;10580;51.092;6.828;2023-04-25T22:45:29;5.20;1.00
20839;DHT22;10580;51.092;6.828;2023-04-25T22:47:56;5.10;1.00
20839;DHT22;10580;51.092;6.828;2023-04-25T22:50:21;5.10;1.00
20839;DHT22;10580;51.092;6.828;2023-04-25T22:52:47;5.10;1.00
20839;DHT22;10580;51.092;6.828;2023-04-25T22:55:13;5.00;1.00
20839;DHT22;10580;51.092;6.828;2023-04-25T22:57:39;4.90;1.00
20839;DHT22;10580;51.092;6.828;2023-04-25T23:00:08;4.80;1.00
20839;DHT22;10580;51.092;6.828;2023-04-25T23:02:43;4.80;1.00
20839;DHT22;10580;51.092;6.828;2023-04-25T23:05:10;4.80;1.00
20839;DHT22;10580;51.092;6.828;2023-04-25T23:07:37;4.70;8.90
20839;DHT22;10580;51.092;6.828;2023-04-25T23:10:08;4.60;99.90
20839;DHT22;10580;51.092;6.828;2023-04-25T23:12:34;4.60;91.20
20839;DHT22;10580;51.092;6.828;2023-04-25T23:15:00;4.60;99.90
20839;DHT22;10580;51.092;6.828;2023-04-25T23:17:27;4.50;1.00
20839;DHT22;10580;51.092;6.828;2023-04-25T23:19:53;4.40;1.00
20839;DHT22;10580;51.092;6.828;2023-04-25T23:22:19;4.40;4.40
20839;DHT22;10580;51.092;6.828;2023-04-25T23:24:44;4.40;11.90
20839;DHT22;10580;51.092;6.828;2023-04-25T23:27:10;4.30;24.60
20839;DHT22;10580;51.092;6.828;2023-04-25T23:29:36;4.30;36.80
20839;DHT22;10580;51.092;6.828;2023-04-25T23:32:01;4.30;47.90
20839;DHT22;10580;51.092;6.828;2023-04-25T23:34:33;4.20;75.90
20839;DHT22;10580;51.092;6.828;2023-04-25T23:36:59;4.20;99.90
20839;DHT22;10580;51.092;6.828;2023-04-25T23:39:31;4.20;99.90
20839;DHT22;10580;51.092;6.828;2023-04-25T23:41:57;4.10;99.90
20839;DHT22;10580;51.092;6.828;2023-04-25T23:44:23;4.10;99.90
20839;DHT22;10580;51.092;6.828;2023-04-25T23:46:48;4.10;99.90
20839;DHT22;10580;51.092;6.828;2023-04-25T23:49:14;4.10;99.90
20839;DHT22;10580;51.092;6.828;2023-04-25T23:51:40;4.10;99.90
20839;DHT22;10580;51.092;6.828;2023-04-25T23:54:05;4.10;1.00
20839;DHT22;10580;51.092;6.828;2023-04-25T23:56:31;4.10;99.90
20839;DHT22;10580;51.092;6.828;2023-04-25T23:58:57;4.00;99.90
